sensor_id;sensor_type;location;lat;lon;timestamp;P1;durP1;ratioP1;P2;durP2;ratioP2
47866;SDS011;33628;50.806;11.586;2022-12-28T00:01:34;10.75;;;4.97;;
47866;SDS011;33628;50.806;11.586;2022-12-28T00:04:01;7.78;;;3.78;;
47866;SDS011;33628;50.806;11.586;2022-12-28T00:06:30;9.27;;;4.13;;
47866;SDS011;33628;50.806;11.586;2022-12-28T00:08:59;9.80;;;4.35;;
47866;SDS011;33628;50.806;11.586;2022-12-28T00:11:27;9.57;;;3.70;;
47866;SDS011;33628;50.806;11.586;2022-12-28T00:13:55;9.02;;;3.83;;
47866;SDS011;33628;50.806;11.586;2022-12-28T00:16:26;15.00;;;3.42;;
47866;SDS011;33628;50.806;11.586;2022-12-28T00:18:54;9.43;;;3.63;;
47866;SDS011;33628;50.806;11.586;2022-12-28T00:21:21;8.65;;;3.58;;
47866;SDS011;33628;50.806;11.586;2022-12-28T00:23:49;9.82;;;3.75;;
47866;SDS011;33628;50.806;11.586;2022-12-28T00:26:18;11.02;;;3.47;;
47866;SDS011;33628;50.806;11.586;2022-12-28T00:28:45;12.07;;;4.50;;
47866;SDS011;33628;50.806;11.586;2022-12-28T00:31:13;7.85;;;3.53;;
47866;SDS011;33628;50.806;11.586;2022-12-28T00:33:42;8.90;;;3.83;;
47866;SDS011;33628;50.806;11.586;2022-12-28T00:36:12;7.80;;;3.70;;
47866;SDS011;33628;50.806;11.586;2022-12-28T00:38:40;6.70;;;3.15;;
47866;SDS011;33628;50.806;11.586;2022-12-28T00:41:07;8.50;;;3.40;;
47866;SDS011;33628;50.806;11.586;2022-12-28T00:43:34;9.95;;;3.40;;
47866;SDS011;33628;50.806;11.586;2022-12-28T00:46:01;8.50;;;3.60;;
47866;SDS011;33628;50.806;11.586;2022-12-28T00:48:28;6.22;;;3.53;;
47866;SDS011;33628;50.806;11.586;2022-12-28T00:51:01;9.63;;;3.72;;
47866;SDS011;33628;50.806;11.586;2022-12-28T00:53:28;7.85;;;3.95;;
47866;SDS011;33628;50.806;11.586;2022-12-28T00:55:55;10.90;;;3.42;;
47866;SDS011;33628;50.806;11.586;2022-12-28T00:58:29;7.45;;;3.40;;
47866;SDS011;33628;50.806;11.586;2022-12-28T01:00:56;9.77;;;3.50;;
47866;SDS011;33628;50.806;11.586;2022-12-28T01:03:23;8.68;;;3.88;;
47866;SDS011;33628;50.806;11.586;2022-12-28T01:05:50;7.88;;;4.32;;
47866;SDS011;33628;50.806;11.586;2022-12-28T01:08:18;9.73;;;4.20;;
47866;SDS011;33628;50.806;11.586;2022-12-28T01:10:45;9.80;;;4.30;;
47866;SDS011;33628;50.806;11.586;2022-12-28T01:13:11;8.65;;;3.88;;
47866;SDS011;33628;50.806;11.586;2022-12-28T01:15:39;9.43;;;4.13;;
47866;SDS011;33628;50.806;11.586;2022-12-28T01:18:06;10.05;;;4.53;;
47866;SDS011;33628;50.806;11.586;2022-12-28T01:20:32;10.00;;;4.40;;
47866;SDS011;33628;50.806;11.586;2022-12-28T01:22:59;12.07;;;4.22;;
47866;SDS011;33628;50.806;11.586;2022-12-28T01:25:27;10.73;;;4.60;;
47866;SDS011;33628;50.806;11.586;2022-12-28T01:27:53;10.45;;;4.10;;
47866;SDS011;33628;50.806;11.586;2022-12-28T01:30:20;6.80;;;3.50;;
47866;SDS011;33628;50.806;11.586;2022-12-28T01:32:47;6.97;;;3.55;;
47866;SDS011;33628;50.806;11.586;2022-12-28T01:35:13;10.27;;;3.78;;
47866;SDS011;33628;50.806;11.586;2022-12-28T01:37:40;8.45;;;3.95;;
47866;SDS011;33628;50.806;11.586;2022-12-28T01:40:08;11.55;;;3.67;;
47866;SDS011;33628;50.806;11.586;2022-12-28T01:42:39;10.77;;;3.83;;
47866;SDS011;33628;50.806;11.586;2022-12-28T01:45:13;7.15;;;3.95;;
47866;SDS011;33628;50.806;11.586;2022-12-28T01:47:42;7.40;;;3.75;;
47866;SDS011;33628;50.806;11.586;2022-12-28T01:50:09;9.10;;;4.20;;
47866;SDS011;33628;50.806;11.586;2022-12-28T01:52:39;8.85;;;3.58;;
47866;SDS011;33628;50.806;11.586;2022-12-28T01:55:10;9.07;;;3.55;;
47866;SDS011;33628;50.806;11.586;2022-12-28T01:57:40;12.05;;;4.00;;
47866;SDS011;33628;50.806;11.586;2022-12-28T02:00:10;9.43;;;3.08;;
47866;SDS011;33628;50.806;11.586;2022-12-28T02:02:38;8.82;;;3.33;;
47866;SDS011;33628;50.806;11.586;2022-12-28T02:05:06;7.38;;;3.30;;
47866;SDS011;33628;50.806;11.586;2022-12-28T02:07:35;8.15;;;3.35;;
47866;SDS011;33628;50.806;11.586;2022-12-28T02:10:07;9.70;;;3.60;;
47866;SDS011;33628;50.806;11.586;2022-12-28T02:12:35;7.50;;;4.00;;
47866;SDS011;33628;50.806;11.586;2022-12-28T02:15:07;8.60;;;3.40;;
47866;SDS011;33628;50.806;11.586;2022-12-28T02:17:34;8.60;;;3.22;;
47866;SDS011;33628;50.806;11.586;2022-12-28T02:20:03;6.88;;;3.20;;
47866;SDS011;33628;50.806;11.586;2022-12-28T02:22:45;8.85;;;3.55;;
47866;SDS011;33628;50.806;11.586;2022-12-28T02:31:44;7.40;;;3.35;;
47866;SDS011;33628;50.806;11.586;2022-12-28T02:34:17;10.40;;;3.33;;
47866;SDS011;33628;50.806;11.586;2022-12-28T02:36:49;7.72;;;3.30;;
47866;SDS011;33628;50.806;11.586;2022-12-28T02:39:19;6.88;;;2.85;;
47866;SDS011;33628;50.806;11.586;2022-12-28T02:41:48;9.75;;;3.55;;
47866;SDS011;33628;50.806;11.586;2022-12-28T02:44:17;11.50;;;3.13;;
47866;SDS011;33628;50.806;11.586;2022-12-28T02:47:03;9.18;;;2.83;;
47866;SDS011;33628;50.806;11.586;2022-12-28T02:49:49;7.35;;;3.08;;
47866;SDS011;33628;50.806;11.586;2022-12-28T02:52:33;5.95;;;3.35;;
47866;SDS011;33628;50.806;11.586;2022-12-28T02:55:28;8.25;;;2.90;;
47866;SDS011;33628;50.806;11.586;2022-12-28T02:58:29;7.88;;;3.03;;
47866;SDS011;33628;50.806;11.586;2022-12-28T03:01:21;7.40;;;3.30;;
47866;SDS011;33628;50.806;11.586;2022-12-28T03:04:03;9.40;;;3.97;;
47866;SDS011;33628;50.806;11.586;2022-12-28T03:06:35;10.27;;;3.28;;
47866;SDS011;33628;50.806;11.586;2022-12-28T03:09:25;5.90;;;3.33;;
47866;SDS011;33628;50.806;11.586;2022-12-28T03:11:56;7.63;;;3.58;;
47866;SDS011;33628;50.806;11.586;2022-12-28T03:14:31;9.05;;;2.95;;
47866;SDS011;33628;50.806;11.586;2022-12-28T03:17:02;8.68;;;3.00;;
47866;SDS011;33628;50.806;11.586;2022-12-28T03:19:51;8.60;;;3.50;;
47866;SDS011;33628;50.806;11.586;2022-12-28T03:22:42;7.25;;;2.42;;
47866;SDS011;33628;50.806;11.586;2022-12-28T03:25:30;2.70;;;1.95;;
47866;SDS011;33628;50.806;11.586;2022-12-28T03:28:25;6.85;;;2.97;;
47866;SDS011;33628;50.806;11.586;2022-12-28T03:31:12;3.90;;;2.20;;
47866;SDS011;33628;50.806;11.586;2022-12-28T03:33:52;9.27;;;2.60;;
47866;SDS011;33628;50.806;11.586;2022-12-28T03:36:40;7.63;;;2.60;;
47866;SDS011;33628;50.806;11.586;2022-12-28T03:39:13;6.10;;;2.90;;
47866;SDS011;33628;50.806;11.586;2022-12-28T03:41:56;5.72;;;2.65;;
47866;SDS011;33628;50.806;11.586;2022-12-28T03:44:58;6.43;;;2.80;;
47866;SDS011;33628;50.806;11.586;2022-12-28T03:47:35;6.25;;;2.70;;
47866;SDS011;33628;50.806;11.586;2022-12-28T03:50:19;5.25;;;2.47;;
47866;SDS011;33628;50.806;11.586;2022-12-28T03:52:59;7.75;;;2.60;;
47866;SDS011;33628;50.806;11.586;2022-12-28T03:55:32;5.97;;;2.70;;
47866;SDS011;33628;50.806;11.586;2022-12-28T03:58:11;4.75;;;2.35;;
47866;SDS011;33628;50.806;11.586;2022-12-28T04:00:47;8.50;;;2.90;;
47866;SDS011;33628;50.806;11.586;2022-12-28T04:03:37;4.30;;;2.35;;
47866;SDS011;33628;50.806;11.586;2022-12-28T04:06:17;8.43;;;2.80;;
47866;SDS011;33628;50.806;11.586;2022-12-28T04:08:45;3.60;;;2.60;;
47866;SDS011;33628;50.806;11.586;2022-12-28T04:11:13;6.00;;;2.85;;
47866;SDS011;33628;50.806;11.586;2022-12-28T04:13:42;7.80;;;2.92;;
47866;SDS011;33628;50.806;11.586;2022-12-28T04:16:12;5.25;;;2.67;;
47866;SDS011;33628;50.806;11.586;2022-12-28T04:18:41;4.97;;;2.90;;
47866;SDS011;33628;50.806;11.586;2022-12-28T04:21:08;6.03;;;2.70;;
47866;SDS011;33628;50.806;11.586;2022-12-28T04:23:40;4.63;;;2.80;;
47866;SDS011;33628;50.806;11.586;2022-12-28T04:26:22;3.78;;;2.63;;
47866;SDS011;33628;50.806;11.586;2022-12-28T04:28:53;6.57;;;2.80;;
47866;SDS011;33628;50.806;11.586;2022-12-28T04:31:36;8.82;;;2.55;;
47866;SDS011;33628;50.806;11.586;2022-12-28T04:34:06;7.40;;;3.08;;
47866;SDS011;33628;50.806;11.586;2022-12-28T04:36:37;8.70;;;2.92;;
47866;SDS011;33628;50.806;11.586;2022-12-28T04:39:13;6.50;;;2.80;;
47866;SDS011;33628;50.806;11.586;2022-12-28T04:41:40;7.68;;;2.53;;
47866;SDS011;33628;50.806;11.586;2022-12-28T04:44:07;3.65;;;2.60;;
47866;SDS011;33628;50.806;11.586;2022-12-28T04:46:33;4.07;;;2.60;;
47866;SDS011;33628;50.806;11.586;2022-12-28T04:49:00;5.45;;;2.80;;
47866;SDS011;33628;50.806;11.586;2022-12-28T04:51:27;8.20;;;2.80;;
47866;SDS011;33628;50.806;11.586;2022-12-28T04:53:54;5.82;;;2.95;;
47866;SDS011;33628;50.806;11.586;2022-12-28T04:56:23;4.72;;;2.85;;
47866;SDS011;33628;50.806;11.586;2022-12-28T04:58:52;4.78;;;2.60;;
47866;SDS011;33628;50.806;11.586;2022-12-28T05:01:19;5.13;;;2.90;;
47866;SDS011;33628;50.806;11.586;2022-12-28T05:03:46;6.70;;;2.95;;
47866;SDS011;33628;50.806;11.586;2022-12-28T05:06:14;4.55;;;2.70;;
47866;SDS011;33628;50.806;11.586;2022-12-28T05:08:42;9.38;;;2.97;;
47866;SDS011;33628;50.806;11.586;2022-12-28T05:11:10;6.32;;;2.78;;
47866;SDS011;33628;50.806;11.586;2022-12-28T05:13:41;8.15;;;2.97;;
47866;SDS011;33628;50.806;11.586;2022-12-28T05:16:08;4.57;;;2.55;;
47866;SDS011;33628;50.806;11.586;2022-12-28T05:18:36;7.70;;;2.30;;
47866;SDS011;33628;50.806;11.586;2022-12-28T05:21:03;8.43;;;2.80;;
47866;SDS011;33628;50.806;11.586;2022-12-28T05:23:31;6.68;;;4.05;;
47866;SDS011;33628;50.806;11.586;2022-12-28T05:25:59;5.05;;;3.05;;
47866;SDS011;33628;50.806;11.586;2022-12-28T05:28:25;7.25;;;2.80;;
47866;SDS011;33628;50.806;11.586;2022-12-28T05:30:57;5.82;;;2.63;;
47866;SDS011;33628;50.806;11.586;2022-12-28T05:33:24;6.35;;;2.80;;
47866;SDS011;33628;50.806;11.586;2022-12-28T05:35:51;7.30;;;2.72;;
47866;SDS011;33628;50.806;11.586;2022-12-28T05:38:17;6.25;;;2.78;;
47866;SDS011;33628;50.806;11.586;2022-12-28T05:40:44;4.68;;;2.70;;
47866;SDS011;33628;50.806;11.586;2022-12-28T05:43:11;5.78;;;2.65;;
47866;SDS011;33628;50.806;11.586;2022-12-28T05:45:37;6.70;;;2.80;;
47866;SDS011;33628;50.806;11.586;2022-12-28T05:48:05;3.80;;;2.60;;
47866;SDS011;33628;50.806;11.586;2022-12-28T05:50:32;5.38;;;3.05;;
47866;SDS011;33628;50.806;11.586;2022-12-28T05:52:59;4.68;;;2.60;;
47866;SDS011;33628;50.806;11.586;2022-12-28T05:55:25;5.47;;;2.70;;
47866;SDS011;33628;50.806;11.586;2022-12-28T05:57:53;4.85;;;2.67;;
47866;SDS011;33628;50.806;11.586;2022-12-28T06:00:20;5.20;;;3.13;;
47866;SDS011;33628;50.806;11.586;2022-12-28T06:02:46;5.70;;;2.95;;
47866;SDS011;33628;50.806;11.586;2022-12-28T06:05:14;8.25;;;2.42;;
47866;SDS011;33628;50.806;11.586;2022-12-28T06:07:41;4.97;;;2.17;;
47866;SDS011;33628;50.806;11.586;2022-12-28T06:10:08;4.22;;;2.30;;
47866;SDS011;33628;50.806;11.586;2022-12-28T06:12:35;4.93;;;2.35;;
47866;SDS011;33628;50.806;11.586;2022-12-28T06:15:01;5.07;;;2.30;;
47866;SDS011;33628;50.806;11.586;2022-12-28T06:17:28;4.30;;;2.17;;
47866;SDS011;33628;50.806;11.586;2022-12-28T06:19:54;4.03;;;2.20;;
47866;SDS011;33628;50.806;11.586;2022-12-28T06:22:22;5.07;;;2.25;;
47866;SDS011;33628;50.806;11.586;2022-12-28T06:24:49;8.02;;;2.13;;
47866;SDS011;33628;50.806;11.586;2022-12-28T06:27:16;3.60;;;1.88;;
47866;SDS011;33628;50.806;11.586;2022-12-28T06:29:42;3.55;;;2.20;;
47866;SDS011;33628;50.806;11.586;2022-12-28T06:32:09;1.98;;;1.77;;
47866;SDS011;33628;50.806;11.586;2022-12-28T06:34:35;4.60;;;2.13;;
47866;SDS011;33628;50.806;11.586;2022-12-28T06:37:02;9.40;;;2.97;;
47866;SDS011;33628;50.806;11.586;2022-12-28T06:39:30;5.75;;;3.22;;
47866;SDS011;33628;50.806;11.586;2022-12-28T06:41:56;3.28;;;2.40;;
47866;SDS011;33628;50.806;11.586;2022-12-28T06:44:23;3.17;;;2.15;;
47866;SDS011;33628;50.806;11.586;2022-12-28T06:46:50;6.35;;;2.05;;
47866;SDS011;33628;50.806;11.586;2022-12-28T06:49:16;3.53;;;2.58;;
47866;SDS011;33628;50.806;11.586;2022-12-28T06:51:43;3.60;;;2.22;;
47866;SDS011;33628;50.806;11.586;2022-12-28T06:54:10;4.82;;;2.47;;
47866;SDS011;33628;50.806;11.586;2022-12-28T06:56:38;4.60;;;2.30;;
47866;SDS011;33628;50.806;11.586;2022-12-28T06:59:04;3.83;;;2.35;;
47866;SDS011;33628;50.806;11.586;2022-12-28T07:01:32;3.88;;;2.25;;
47866;SDS011;33628;50.806;11.586;2022-12-28T07:04:00;3.28;;;2.17;;
47866;SDS011;33628;50.806;11.586;2022-12-28T07:06:28;6.43;;;2.63;;
47866;SDS011;33628;50.806;11.586;2022-12-28T07:08:58;4.60;;;3.03;;
47866;SDS011;33628;50.806;11.586;2022-12-28T07:11:26;6.63;;;2.40;;
47866;SDS011;33628;50.806;11.586;2022-12-28T07:13:55;6.07;;;2.60;;
47866;SDS011;33628;50.806;11.586;2022-12-28T07:16:25;3.85;;;2.30;;
47866;SDS011;33628;50.806;11.586;2022-12-28T07:18:52;4.40;;;2.75;;
47866;SDS011;33628;50.806;11.586;2022-12-28T07:21:20;5.20;;;2.50;;
47866;SDS011;33628;50.806;11.586;2022-12-28T07:23:48;5.63;;;2.80;;
47866;SDS011;33628;50.806;11.586;2022-12-28T07:26:16;4.70;;;2.90;;
47866;SDS011;33628;50.806;11.586;2022-12-28T07:28:47;5.22;;;2.70;;
47866;SDS011;33628;50.806;11.586;2022-12-28T07:31:17;5.22;;;2.67;;
47866;SDS011;33628;50.806;11.586;2022-12-28T07:33:45;5.57;;;2.40;;
47866;SDS011;33628;50.806;11.586;2022-12-28T07:36:13;6.75;;;2.92;;
47866;SDS011;33628;50.806;11.586;2022-12-28T07:38:42;3.45;;;2.33;;
47866;SDS011;33628;50.806;11.586;2022-12-28T07:41:09;5.05;;;2.08;;
47866;SDS011;33628;50.806;11.586;2022-12-28T07:43:37;4.47;;;2.72;;
47866;SDS011;33628;50.806;11.586;2022-12-28T07:46:05;6.82;;;2.97;;
47866;SDS011;33628;50.806;11.586;2022-12-28T07:48:35;4.32;;;2.60;;
47866;SDS011;33628;50.806;11.586;2022-12-28T07:51:05;6.75;;;2.75;;
47866;SDS011;33628;50.806;11.586;2022-12-28T07:53:34;4.35;;;2.50;;
47866;SDS011;33628;50.806;11.586;2022-12-28T07:56:01;4.70;;;2.85;;
47866;SDS011;33628;50.806;11.586;2022-12-28T07:58:28;3.78;;;2.88;;
47866;SDS011;33628;50.806;11.586;2022-12-28T08:01:01;8.30;;;2.95;;
47866;SDS011;33628;50.806;11.586;2022-12-28T08:03:29;4.78;;;2.80;;
47866;SDS011;33628;50.806;11.586;2022-12-28T08:06:02;7.25;;;2.47;;
47866;SDS011;33628;50.806;11.586;2022-12-28T08:08:30;7.63;;;2.80;;
47866;SDS011;33628;50.806;11.586;2022-12-28T08:11:00;4.53;;;2.95;;
47866;SDS011;33628;50.806;11.586;2022-12-28T08:13:29;7.78;;;2.60;;
47866;SDS011;33628;50.806;11.586;2022-12-28T08:15:58;4.45;;;2.90;;
47866;SDS011;33628;50.806;11.586;2022-12-28T08:18:25;6.97;;;3.10;;
47866;SDS011;33628;50.806;11.586;2022-12-28T08:20:51;4.13;;;2.45;;
47866;SDS011;33628;50.806;11.586;2022-12-28T08:23:20;5.90;;;3.17;;
47866;SDS011;33628;50.806;11.586;2022-12-28T08:25:47;5.47;;;2.80;;
47866;SDS011;33628;50.806;11.586;2022-12-28T08:28:13;7.15;;;3.10;;
47866;SDS011;33628;50.806;11.586;2022-12-28T08:30:40;6.78;;;4.00;;
47866;SDS011;33628;50.806;11.586;2022-12-28T08:33:06;7.30;;;3.08;;
47866;SDS011;33628;50.806;11.586;2022-12-28T08:35:33;3.80;;;2.50;;
47866;SDS011;33628;50.806;11.586;2022-12-28T08:38:00;4.95;;;2.50;;
47866;SDS011;33628;50.806;11.586;2022-12-28T08:40:28;6.32;;;3.17;;
47866;SDS011;33628;50.806;11.586;2022-12-28T08:42:56;7.72;;;2.63;;
47866;SDS011;33628;50.806;11.586;2022-12-28T08:45:26;4.65;;;2.35;;
47866;SDS011;33628;50.806;11.586;2022-12-28T08:47:52;2.90;;;2.25;;
47866;SDS011;33628;50.806;11.586;2022-12-28T08:50:19;6.43;;;2.67;;
47866;SDS011;33628;50.806;11.586;2022-12-28T08:52:46;3.38;;;2.00;;
47866;SDS011;33628;50.806;11.586;2022-12-28T08:55:13;3.58;;;2.17;;
47866;SDS011;33628;50.806;11.586;2022-12-28T08:57:41;6.15;;;2.45;;
47866;SDS011;33628;50.806;11.586;2022-12-28T09:00:08;5.38;;;2.42;;
47866;SDS011;33628;50.806;11.586;2022-12-28T09:02:37;12.15;;;4.43;;
47866;SDS011;33628;50.806;11.586;2022-12-28T09:05:04;5.85;;;2.50;;
47866;SDS011;33628;50.806;11.586;2022-12-28T09:07:31;7.95;;;2.47;;
47866;SDS011;33628;50.806;11.586;2022-12-28T09:09:58;4.43;;;2.67;;
47866;SDS011;33628;50.806;11.586;2022-12-28T09:12:24;2.83;;;2.15;;
47866;SDS011;33628;50.806;11.586;2022-12-28T09:14:52;3.55;;;2.70;;
47866;SDS011;33628;50.806;11.586;2022-12-28T09:17:19;6.05;;;2.55;;
47866;SDS011;33628;50.806;11.586;2022-12-28T09:19:46;4.78;;;2.92;;
47866;SDS011;33628;50.806;11.586;2022-12-28T09:22:12;3.72;;;2.17;;
47866;SDS011;33628;50.806;11.586;2022-12-28T09:24:39;4.70;;;2.10;;
47866;SDS011;33628;50.806;11.586;2022-12-28T09:27:06;5.10;;;2.08;;
47866;SDS011;33628;50.806;11.586;2022-12-28T09:29:33;3.15;;;1.92;;
47866;SDS011;33628;50.806;11.586;2022-12-28T09:32:01;4.15;;;1.63;;
47866;SDS011;33628;50.806;11.586;2022-12-28T09:34:27;5.88;;;1.90;;
47866;SDS011;33628;50.806;11.586;2022-12-28T09:36:54;4.32;;;2.03;;
47866;SDS011;33628;50.806;11.586;2022-12-28T09:39:20;5.18;;;2.65;;
47866;SDS011;33628;50.806;11.586;2022-12-28T09:41:49;9.85;;;2.50;;
47866;SDS011;33628;50.806;11.586;2022-12-28T09:44:28;4.10;;;2.13;;
47866;SDS011;33628;50.806;11.586;2022-12-28T09:47:09;2.63;;;1.80;;
47866;SDS011;33628;50.806;11.586;2022-12-28T09:49:43;3.42;;;1.80;;
47866;SDS011;33628;50.806;11.586;2022-12-28T09:52:20;4.60;;;1.70;;
47866;SDS011;33628;50.806;11.586;2022-12-28T09:54:51;3.88;;;1.60;;
47866;SDS011;33628;50.806;11.586;2022-12-28T09:57:18;3.38;;;1.73;;
47866;SDS011;33628;50.806;11.586;2022-12-28T09:59:45;2.30;;;1.60;;
47866;SDS011;33628;50.806;11.586;2022-12-28T10:02:15;5.45;;;1.80;;
47866;SDS011;33628;50.806;11.586;2022-12-28T10:04:45;4.70;;;1.80;;
47866;SDS011;33628;50.806;11.586;2022-12-28T10:07:12;2.75;;;1.60;;
47866;SDS011;33628;50.806;11.586;2022-12-28T10:09:39;4.03;;;1.33;;
47866;SDS011;33628;50.806;11.586;2022-12-28T10:12:09;2.95;;;1.75;;
47866;SDS011;33628;50.806;11.586;2022-12-28T10:14:39;4.65;;;1.85;;
47866;SDS011;33628;50.806;11.586;2022-12-28T10:17:06;2.58;;;1.58;;
47866;SDS011;33628;50.806;11.586;2022-12-28T10:19:36;4.75;;;1.40;;
47866;SDS011;33628;50.806;11.586;2022-12-28T10:22:03;2.85;;;1.70;;
47866;SDS011;33628;50.806;11.586;2022-12-28T10:24:31;6.10;;;2.05;;
47866;SDS011;33628;50.806;11.586;2022-12-28T10:26:58;3.70;;;1.75;;
47866;SDS011;33628;50.806;11.586;2022-12-28T10:29:25;5.47;;;1.50;;
47866;SDS011;33628;50.806;11.586;2022-12-28T10:31:56;2.85;;;1.40;;
47866;SDS011;33628;50.806;11.586;2022-12-28T10:34:25;2.42;;;1.50;;
47866;SDS011;33628;50.806;11.586;2022-12-28T10:36:54;4.57;;;1.58;;
47866;SDS011;33628;50.806;11.586;2022-12-28T10:39:23;5.88;;;2.67;;
47866;SDS011;33628;50.806;11.586;2022-12-28T10:41:51;3.67;;;1.80;;
47866;SDS011;33628;50.806;11.586;2022-12-28T10:44:19;2.72;;;1.20;;
47866;SDS011;33628;50.806;11.586;2022-12-28T10:46:51;4.88;;;1.85;;
47866;SDS011;33628;50.806;11.586;2022-12-28T10:49:20;4.68;;;2.03;;
47866;SDS011;33628;50.806;11.586;2022-12-28T10:54:42;6.10;;;2.30;;
47866;SDS011;33628;50.806;11.586;2022-12-28T10:57:12;6.20;;;2.78;;
47866;SDS011;33628;50.806;11.586;2022-12-28T10:59:41;6.15;;;1.98;;
47866;SDS011;33628;50.806;11.586;2022-12-28T11:02:26;3.05;;;1.58;;
47866;SDS011;33628;50.806;11.586;2022-12-28T11:04:54;3.50;;;1.73;;
47866;SDS011;33628;50.806;11.586;2022-12-28T11:07:28;5.53;;;1.73;;
47866;SDS011;33628;50.806;11.586;2022-12-28T11:10:15;4.40;;;1.65;;
47866;SDS011;33628;50.806;11.586;2022-12-28T11:12:48;3.35;;;1.60;;
47866;SDS011;33628;50.806;11.586;2022-12-28T11:15:16;2.70;;;1.40;;
47866;SDS011;33628;50.806;11.586;2022-12-28T11:17:44;3.92;;;1.88;;
47866;SDS011;33628;50.806;11.586;2022-12-28T11:20:18;6.35;;;2.60;;
47866;SDS011;33628;50.806;11.586;2022-12-28T11:22:49;3.17;;;1.30;;
47866;SDS011;33628;50.806;11.586;2022-12-28T11:25:16;3.35;;;1.42;;
47866;SDS011;33628;50.806;11.586;2022-12-28T11:27:44;3.80;;;1.40;;
47866;SDS011;33628;50.806;11.586;2022-12-28T11:30:14;4.30;;;1.70;;
47866;SDS011;33628;50.806;11.586;2022-12-28T11:32:43;3.55;;;2.35;;
47866;SDS011;33628;50.806;11.586;2022-12-28T11:35:14;3.90;;;1.38;;
47866;SDS011;33628;50.806;11.586;2022-12-28T11:37:54;3.30;;;1.40;;
47866;SDS011;33628;50.806;11.586;2022-12-28T11:43:26;2.75;;;1.42;;
47866;SDS011;33628;50.806;11.586;2022-12-28T11:46:05;3.13;;;1.45;;
47866;SDS011;33628;50.806;11.586;2022-12-28T11:48:46;1.40;;;1.30;;
47866;SDS011;33628;50.806;11.586;2022-12-28T11:51:16;5.60;;;2.00;;
47866;SDS011;33628;50.806;11.586;2022-12-28T11:53:49;4.30;;;1.38;;
47866;SDS011;33628;50.806;11.586;2022-12-28T11:56:18;7.38;;;1.67;;
47866;SDS011;33628;50.806;11.586;2022-12-28T11:58:46;3.75;;;1.40;;
47866;SDS011;33628;50.806;11.586;2022-12-28T12:01:40;4.70;;;1.50;;
47866;SDS011;33628;50.806;11.586;2022-12-28T12:10:18;2.45;;;1.23;;
47866;SDS011;33628;50.806;11.586;2022-12-28T12:13:02;4.07;;;1.65;;
47866;SDS011;33628;50.806;11.586;2022-12-28T12:15:44;4.15;;;1.92;;
47866;SDS011;33628;50.806;11.586;2022-12-28T12:18:14;3.90;;;1.73;;
47866;SDS011;33628;50.806;11.586;2022-12-28T12:20:54;2.67;;;1.45;;
47866;SDS011;33628;50.806;11.586;2022-12-28T12:23:25;6.55;;;1.85;;
47866;SDS011;33628;50.806;11.586;2022-12-28T12:25:56;2.58;;;1.40;;
47866;SDS011;33628;50.806;11.586;2022-12-28T12:28:31;4.00;;;1.45;;
47866;SDS011;33628;50.806;11.586;2022-12-28T12:31:01;5.05;;;1.60;;
47866;SDS011;33628;50.806;11.586;2022-12-28T12:33:30;3.75;;;1.60;;
47866;SDS011;33628;50.806;11.586;2022-12-28T12:36:01;4.63;;;1.80;;
47866;SDS011;33628;50.806;11.586;2022-12-28T12:38:38;2.55;;;1.42;;
47866;SDS011;33628;50.806;11.586;2022-12-28T12:41:19;3.72;;;1.50;;
47866;SDS011;33628;50.806;11.586;2022-12-28T12:43:55;4.50;;;1.70;;
47866;SDS011;33628;50.806;11.586;2022-12-28T12:49:36;1.85;;;1.50;;
47866;SDS011;33628;50.806;11.586;2022-12-28T12:52:29;3.60;;;2.00;;
47866;SDS011;33628;50.806;11.586;2022-12-28T12:55:02;5.93;;;1.67;;
47866;SDS011;33628;50.806;11.586;2022-12-28T12:57:51;5.18;;;1.52;;
47866;SDS011;33628;50.806;11.586;2022-12-28T13:00:25;6.38;;;2.28;;
47866;SDS011;33628;50.806;11.586;2022-12-28T13:03:03;2.75;;;1.60;;
47866;SDS011;33628;50.806;11.586;2022-12-28T13:05:50;5.30;;;1.85;;
47866;SDS011;33628;50.806;11.586;2022-12-28T13:08:19;3.78;;;1.45;;
47866;SDS011;33628;50.806;11.586;2022-12-28T13:10:49;3.78;;;1.25;;
47866;SDS011;33628;50.806;11.586;2022-12-28T13:13:24;3.65;;;1.45;;
47866;SDS011;33628;50.806;11.586;2022-12-28T13:15:58;5.13;;;1.33;;
47866;SDS011;33628;50.806;11.586;2022-12-28T13:18:27;3.90;;;1.45;;
47866;SDS011;33628;50.806;11.586;2022-12-28T13:20:55;5.47;;;1.40;;
47866;SDS011;33628;50.806;11.586;2022-12-28T13:23:23;2.95;;;1.30;;
47866;SDS011;33628;50.806;11.586;2022-12-28T13:25:51;2.78;;;1.73;;
47866;SDS011;33628;50.806;11.586;2022-12-28T13:28:20;4.40;;;1.60;;
47866;SDS011;33628;50.806;11.586;2022-12-28T13:30:54;3.25;;;1.45;;
47866;SDS011;33628;50.806;11.586;2022-12-28T13:33:22;7.32;;;1.77;;
47866;SDS011;33628;50.806;11.586;2022-12-28T13:35:49;1.85;;;1.20;;
47866;SDS011;33628;50.806;11.586;2022-12-28T13:38:16;3.58;;;1.60;;
47866;SDS011;33628;50.806;11.586;2022-12-28T13:40:48;4.18;;;1.58;;
47866;SDS011;33628;50.806;11.586;2022-12-28T13:43:37;3.65;;;1.30;;
47866;SDS011;33628;50.806;11.586;2022-12-28T13:46:27;5.97;;;1.80;;
47866;SDS011;33628;50.806;11.586;2022-12-28T13:48:54;3.50;;;1.70;;
47866;SDS011;33628;50.806;11.586;2022-12-28T13:51:24;2.60;;;1.60;;
47866;SDS011;33628;50.806;11.586;2022-12-28T13:53:52;3.13;;;1.73;;
47866;SDS011;33628;50.806;11.586;2022-12-28T13:56:22;4.30;;;1.67;;
47866;SDS011;33628;50.806;11.586;2022-12-28T13:58:51;4.43;;;1.95;;
47866;SDS011;33628;50.806;11.586;2022-12-28T14:01:22;4.22;;;1.83;;
47866;SDS011;33628;50.806;11.586;2022-12-28T14:03:50;4.45;;;1.73;;
47866;SDS011;33628;50.806;11.586;2022-12-28T14:06:24;5.00;;;3.03;;
47866;SDS011;33628;50.806;11.586;2022-12-28T14:08:50;3.38;;;1.70;;
47866;SDS011;33628;50.806;11.586;2022-12-28T14:11:17;4.97;;;2.03;;
47866;SDS011;33628;50.806;11.586;2022-12-28T14:13:45;2.35;;;1.73;;
47866;SDS011;33628;50.806;11.586;2022-12-28T14:16:14;7.05;;;2.17;;
47866;SDS011;33628;50.806;11.586;2022-12-28T14:18:42;5.53;;;1.98;;
47866;SDS011;33628;50.806;11.586;2022-12-28T14:21:10;5.63;;;1.90;;
47866;SDS011;33628;50.806;11.586;2022-12-28T14:23:38;4.93;;;2.03;;
47866;SDS011;33628;50.806;11.586;2022-12-28T14:26:05;5.60;;;2.40;;
47866;SDS011;33628;50.806;11.586;2022-12-28T14:28:34;8.32;;;2.90;;
47866;SDS011;33628;50.806;11.586;2022-12-28T14:31:03;8.45;;;2.83;;
47866;SDS011;33628;50.806;11.586;2022-12-28T14:33:33;6.00;;;2.92;;
47866;SDS011;33628;50.806;11.586;2022-12-28T14:36:02;5.97;;;2.53;;
47866;SDS011;33628;50.806;11.586;2022-12-28T14:38:31;5.45;;;3.08;;
47866;SDS011;33628;50.806;11.586;2022-12-28T14:40:59;5.63;;;2.53;;
47866;SDS011;33628;50.806;11.586;2022-12-28T14:43:28;8.43;;;2.92;;
47866;SDS011;33628;50.806;11.586;2022-12-28T14:45:56;4.07;;;2.50;;
47866;SDS011;33628;50.806;11.586;2022-12-28T14:48:29;4.60;;;2.20;;
47866;SDS011;33628;50.806;11.586;2022-12-28T14:50:59;4.53;;;2.25;;
47866;SDS011;33628;50.806;11.586;2022-12-28T14:53:28;4.63;;;2.50;;
47866;SDS011;33628;50.806;11.586;2022-12-28T14:55:57;11.38;;;2.10;;
47866;SDS011;33628;50.806;11.586;2022-12-28T14:58:26;3.90;;;2.78;;
47866;SDS011;33628;50.806;11.586;2022-12-28T15:00:55;6.53;;;2.60;;
47866;SDS011;33628;50.806;11.586;2022-12-28T15:03:23;2.20;;;1.45;;
47866;SDS011;33628;50.806;11.586;2022-12-28T15:05:55;7.30;;;1.90;;
47866;SDS011;33628;50.806;11.586;2022-12-28T15:08:23;9.10;;;2.90;;
47866;SDS011;33628;50.806;11.586;2022-12-28T15:10:53;5.95;;;2.03;;
47866;SDS011;33628;50.806;11.586;2022-12-28T15:13:24;7.07;;;2.53;;
47866;SDS011;33628;50.806;11.586;2022-12-28T15:15:51;3.70;;;1.55;;